ENHD

Haugesund Airport

Karmøy, Norway
METAR ENHD 171150Z 15010KT CAVOK 03/M03 Q1017
Observed Flight Rules
Dec-17 @ 11:50 UTC (48 minutes ago) Visual Flight Rules
Wind Visibility Clouds
150° at 10 knots 10,000+ meters
  • Clear skies
Temperatures Readings
Current 3°C / 37°F
Dewpoint -3°C / 27°F
Humidity 65%
Altimeter 30.03" Hg
Pressure 1017 hPa
Elevation 24
METAR ENHD 171150Z 15010KT CAVOK 03/M03 Q1017
Observed Flight Rules
Dec-17 @ 11:50 UTC
(48 minutes ago)
VFR
Wind Visibility
150° at 10 knots 10,000+ meters
Clouds
  • Clear skies
Temperature Dewpoint
3°C / 37°F -3°C / 27°F
Humidity Altimeter Pressure
65% 30.03" Hg 1017 hPa